Wetterdaten: Woche 01.06.15 - 07.06.15 (KW23)
Datum Zeit Temp. A. Feuchte A. Luftdruck Regen Wind Richtung Sonnenschein ET UV Solar Taupunkt Windchill Windben Empfang
01.06.2015 00:00 14,6 C 87 % 1015,1 hPa 0,0 l/m 0,0 km/h (0 Bft) N 0,00 h 0,000 mm 0,0 UV-I 0 W/m 12,5 C 14,6 C 0,0 km/h (0 Bft) 0,00 %
01.06.2015 01:00 14,2 C 93 % 1015,5 hPa 0,0 l/m 0,0 km/h (0 Bft) N 0,00 h 0,000 mm 0,0 UV-I 0 W/m 13,1 C 14,2 C 0,0 km/h (0 Bft) 0,00 %
01.06.2015 02:00 13,7 C 95 % 1015,5 hPa 0,0 l/m 0,0 km/h (0 Bft) N 0,00 h 0,000 mm 0,0 UV-I 0 W/m 12,9 C 13,7 C 0,0 km/h (0 Bft) 0,00 %
01.06.2015 03:00 13,6 C 96 % 1015,6 hPa 0,3 l/m 0,0 km/h (0 Bft) N 0,00 h 0,000 mm 0,0 UV-I 0 W/m 13,0 C 13,6 C 0,0 km/h (0 Bft) 0,00 %
01.06.2015 04:00 12,5 C 97 % 1015,7 hPa 0,0 l/m 0,0 km/h (0 Bft) N 0,00 h 0,000 mm 0,0 UV-I 0 W/m 12,0 C 12,5 C 0,0 km/h (0 Bft) 0,00 %
01.06.2015 05:00 12,0 C 97 % 1015,8 hPa 0,0 l/m 0,0 km/h (0 Bft) N 0,00 h 0,000 mm 0,0 UV-I 0 W/m 11,5 C 12,0 C 0,0 km/h (0 Bft) 0,00 %
01.06.2015 06:00 12,2 C 97 % 1016,1 hPa 0,0 l/m 0,0 km/h (0 Bft) N 0,00 h 0,000 mm 0,0 UV-I 0 W/m 11,7 C 12,2 C 0,0 km/h (0 Bft) 0,00 %
01.06.2015 07:00 15,5 C 90 % 1016,0 hPa 0,0 l/m 0,0 km/h (0 Bft) N 1,00 h 0,000 mm 0,0 UV-I 0 W/m 13,9 C 15,5 C 0,0 km/h (0 Bft) 0,00 %
01.06.2015 08:00 16,9 C 79 % 1016,1 hPa 0,0 l/m 0,0 km/h (0 Bft) N 1,00 h 0,000 mm 0,0 UV-I 0 W/m 13,2 C 16,9 C 0,0 km/h (0 Bft) 0,00 %
01.06.2015 09:00 19,3 C 72 % 1016,1 hPa 0,0 l/m 0,0 km/h (0 Bft) N-NW 1,00 h 0,000 mm 0,0 UV-I 0 W/m 14,1 C 19,3 C 0,0 km/h (0 Bft) 0,00 %
01.06.2015 10:00 20,8 C 63 % 1015,8 hPa 0,0 l/m 1,4 km/h (1 Bft) N 1,00 h 0,000 mm 0,0 UV-I 0 W/m 13,5 C 20,8 C 4,0 km/h (1 Bft) 0,00 %
01.06.2015 11:00 22,8 C 60 % 1015,5 hPa 0,0 l/m 0,0 km/h (0 Bft) N 1,00 h 0,000 mm 0,0 UV-I 0 W/m 14,6 C 22,8 C 0,0 km/h (0 Bft) 0,00 %
01.06.2015 12:00 23,1 C 59 % 1015,2 hPa 0,0 l/m 0,0 km/h (0 Bft) N 1,00 h 0,000 mm 0,0 UV-I 0 W/m 14,6 C 23,1 C 0,0 km/h (0 Bft) 0,00 %
01.06.2015 13:00 24,0 C 51 % 1014,3 hPa 0,0 l/m 0,0 km/h (0 Bft) N 1,00 h 0,000 mm 0,0 UV-I 0 W/m 13,2 C 24,0 C 0,0 km/h (0 Bft) 0,00 %
01.06.2015 14:00 25,1 C 40 % 1013,5 hPa 0,0 l/m 0,0 km/h (0 Bft) N 1,00 h 0,000 mm 0,0 UV-I 0 W/m 10,5 C 25,1 C 0,0 km/h (0 Bft) 0,00 %
01.06.2015 15:00 25,2 C 40 % 1013,1 hPa 0,0 l/m 0,0 km/h (0 Bft) N 1,00 h 0,000 mm 0,0 UV-I 0 W/m 10,6 C 25,2 C 0,0 km/h (0 Bft) 0,00 %
01.06.2015 16:00 26,1 C 43 % 1012,7 hPa 0,0 l/m 0,3 km/h (0 Bft) N 1,00 h 0,000 mm 0,0 UV-I 0 W/m 12,5 C 26,1 C 4,0 km/h (1 Bft) 0,00 %
01.06.2015 17:00 24,9 C 45 % 1012,4 hPa 0,0 l/m 0,3 km/h (0 Bft) O 1,00 h 0,000 mm 0,0 UV-I 0 W/m 12,1 C 24,9 C 4,0 km/h (1 Bft) 0,00 %
01.06.2015 18:00 24,6 C 45 % 1012,5 hPa 0,0 l/m 1,8 km/h (1 Bft) SO 1,00 h 0,000 mm 0,0 UV-I 0 W/m 11,9 C 24,6 C 4,0 km/h (1 Bft) 0,00 %
01.06.2015 19:00 24,3 C 45 % 1011,9 hPa 0,0 l/m 4,0 km/h (1 Bft) O 1,00 h 0,000 mm 0,0 UV-I 0 W/m 11,6 C 24,3 C 4,0 km/h (1 Bft) 0,00 %
01.06.2015 20:00 23,9 C 47 % 1011,9 hPa 0,0 l/m 1,8 km/h (1 Bft) N 0,00 h 0,000 mm 0,0 UV-I 0 W/m 11,9 C 23,9 C 4,0 km/h (1 Bft) 0,00 %
01.06.2015 21:00 20,3 C 62 % 1012,5 hPa 0,0 l/m 0,0 km/h (0 Bft) N 0,00 h 0,000 mm 0,0 UV-I 0 W/m 12,8 C 20,3 C 0,0 km/h (0 Bft) 0,00 %
01.06.2015 22:00 18,6 C 67 % 1013,3 hPa 0,0 l/m 0,0 km/h (0 Bft) SW 0,00 h 0,000 mm 0,0 UV-I 0 W/m 12,3 C 18,6 C 0,0 km/h (0 Bft) 0,00 %
01.06.2015 23:00 18,4 C 68 % 1015,1 hPa 0,0 l/m 4,7 km/h (1 Bft) N 0,00 h 0,000 mm 0,0 UV-I 0 W/m 12,4 C 18,4 C 7,9 km/h (2 Bft) 0,00 %
02.06.2015 00:00 16,5 C 79 % 1016,5 hPa 0,0 l/m 0,6 km/h (0 Bft) O 0,00 h 0,000 mm 0,0 UV-I 0 W/m 12,8 C 16,5 C 4,0 km/h (1 Bft) 0,00 %
02.06.2015 01:00 15,6 C 81 % 1017,0 hPa 0,0 l/m 3,2 km/h (1 Bft) N 0,00 h 0,000 mm 0,0 UV-I 0 W/m 12,3 C 15,6 C 4,0 km/h (1 Bft) 0,00 %
02.06.2015 02:00 14,9 C 85 % 1017,1 hPa 0,0 l/m 0,6 km/h (0 Bft) N 0,00 h 0,000 mm 0,0 UV-I 0 W/m 12,4 C 14,9 C 4,0 km/h (1 Bft) 0,00 %
02.06.2015 03:00 15,1 C 83 % 1017,1 hPa 0,0 l/m 0,3 km/h (0 Bft) N 0,00 h 0,000 mm 0,0 UV-I 0 W/m 12,2 C 15,1 C 4,0 km/h (1 Bft) 0,00 %
02.06.2015 04:00 15,0 C 83 % 1017,4 hPa 0,0 l/m 0,0 km/h (0 Bft) N 0,00 h 0,000 mm 0,0 UV-I 0 W/m 12,1 C 15,0 C 0,0 km/h (0 Bft) 0,00 %
02.06.2015 05:00 15,5 C 87 % 1017,4 hPa 0,0 l/m 0,0 km/h (0 Bft) N 0,00 h 0,000 mm 0,0 UV-I 0 W/m 13,3 C 15,5 C 0,0 km/h (0 Bft) 0,00 %
02.06.2015 06:00 14,7 C 88 % 1017,2 hPa 0,0 l/m 0,0 km/h (0 Bft) N 1,00 h 0,000 mm 0,0 UV-I 0 W/m 12,7 C 14,7 C 0,0 km/h (0 Bft) 0,00 %
02.06.2015 07:00 17,0 C 77 % 1016,8 hPa 0,0 l/m 0,0 km/h (0 Bft) N 0,00 h 0,000 mm 0,0 UV-I 0 W/m 12,9 C 17,0 C 0,0 km/h (0 Bft) 0,00 %
02.06.2015 08:00 18,2 C 74 % 1017,7 hPa 0,0 l/m 0,0 km/h (0 Bft) N 0,00 h 0,000 mm 0,0 UV-I 0 W/m 13,5 C 18,2 C 0,0 km/h (0 Bft) 0,00 %
02.06.2015 09:00 21,3 C 63 % 1017,9 hPa 0,0 l/m 0,0 km/h (0 Bft) W 1,00 h 0,000 mm 0,0 UV-I 0 W/m 14,0 C 21,3 C 0,0 km/h (0 Bft) 0,00 %
02.06.2015 10:00 23,3 C 54 % 1018,3 hPa 0,0 l/m 2,1 km/h (1 Bft) N 1,00 h 0,000 mm 0,0 UV-I 0 W/m 13,5 C 23,3 C 4,0 km/h (1 Bft) 0,00 %
02.06.2015 11:00 23,2 C 52 % 1018,7 hPa 0,0 l/m 0,0 km/h (0 Bft) O-SO 0,00 h 0,000 mm 0,0 UV-I 0 W/m 12,8 C 23,2 C 0,0 km/h (0 Bft) 0,00 %
02.06.2015 12:00 23,4 C 58 % 1018,3 hPa 0,0 l/m 2,1 km/h (1 Bft) N 1,00 h 0,000 mm 0,0 UV-I 0 W/m 14,7 C 23,4 C 4,0 km/h (1 Bft) 0,00 %
02.06.2015 13:00 24,4 C 49 % 1017,8 hPa 0,0 l/m 0,0 km/h (0 Bft) S-SO 1,00 h 0,000 mm 0,0 UV-I 0 W/m 13,0 C 24,4 C 0,0 km/h (0 Bft) 0,00 %
02.06.2015 14:00 25,2 C 47 % 1017,4 hPa 0,0 l/m 1,8 km/h (1 Bft) N 1,00 h 0,000 mm 0,0 UV-I 0 W/m 13,1 C 25,2 C 4,0 km/h (1 Bft) 0,00 %
02.06.2015 15:00 26,7 C 42 % 1016,7 hPa 0,0 l/m 0,0 km/h (0 Bft) N 1,00 h 0,000 mm 0,0 UV-I 0 W/m 12,7 C 26,7 C 0,0 km/h (0 Bft) 0,00 %
02.06.2015 16:00 27,9 C 38 % 1016,3 hPa 0,0 l/m 0,0 km/h (0 Bft) W-SW 1,00 h 0,000 mm 0,0 UV-I 0 W/m 12,2 C 27,9 C 0,0 km/h (0 Bft) 0,00 %
02.06.2015 17:00 26,4 C 42 % 1016,5 hPa 0,0 l/m 1,4 km/h (1 Bft) O 1,00 h 0,000 mm 0,0 UV-I 0 W/m 12,4 C 26,4 C 4,0 km/h (1 Bft) 0,00 %
02.06.2015 18:00 25,8 C 46 % 1016,1 hPa 0,0 l/m 4,0 km/h (1 Bft) O-SO 1,00 h 0,000 mm 0,0 UV-I 0 W/m 13,3 C 25,8 C 4,0 km/h (1 Bft) 0,00 %
02.06.2015 19:00 25,5 C 45 % 1016,2 hPa 0,0 l/m 3,2 km/h (1 Bft) N 1,00 h 0,000 mm 0,0 UV-I 0 W/m 12,7 C 25,5 C 4,0 km/h (1 Bft) 0,00 %
02.06.2015 20:00 24,7 C 47 % 1016,7 hPa 0,0 l/m 0,3 km/h (0 Bft) N 1,00 h 0,000 mm 0,0 UV-I 0 W/m 12,6 C 24,7 C 4,0 km/h (1 Bft) 0,00 %
02.06.2015 21:00 21,9 C 59 % 1017,4 hPa 0,0 l/m 0,0 km/h (0 Bft) N 0,00 h 0,000 mm 0,0 UV-I 0 W/m 13,5 C 21,9 C 0,0 km/h (0 Bft) 0,00 %
02.06.2015 22:00 19,4 C 66 % 1018,2 hPa 0,0 l/m 0,0 km/h (0 Bft) N 0,00 h 0,000 mm 0,0 UV-I 0 W/m 12,9 C 19,4 C 0,0 km/h (0 Bft) 0,00 %
02.06.2015 23:00 17,8 C 72 % 1018,5 hPa 0,0 l/m 0,0 km/h (0 Bft) N 0,00 h 0,000 mm 0,0 UV-I 0 W/m 12,7 C 17,8 C 0,0 km/h (0 Bft) 0,00 %
03.06.2015 00:00 17,9 C 73 % 1017,7 hPa 0,0 l/m 0,0 km/h (0 Bft) N 0,00 h 0,000 mm 0,0 UV-I 0 W/m 13,0 C 17,9 C 0,0 km/h (0 Bft) 0,00 %
03.06.2015 01:00 16,0 C 79 % 1018,0 hPa 0,0 l/m 0,0 km/h (0 Bft) N 0,00 h 0,000 mm 0,0 UV-I 0 W/m 12,4 C 16,0 C 0,0 km/h (0 Bft) 0,00 %
03.06.2015 02:00 15,4 C 82 % 1018,4 hPa 0,0 l/m 0,0 km/h (0 Bft) N 0,00 h 0,000 mm 0,0 UV-I 0 W/m 12,3 C 15,4 C 0,0 km/h (0 Bft) 0,00 %
03.06.2015 03:00 14,5 C 88 % 1018,6 hPa 0,0 l/m 0,0 km/h (0 Bft) N 0,00 h 0,000 mm 0,0 UV-I 0 W/m 12,5 C 14,5 C 0,0 km/h (0 Bft) 0,00 %
03.06.2015 04:00 14,5 C 89 % 1019,0 hPa 0,0 l/m 0,0 km/h (0 Bft) N 0,00 h 0,000 mm 0,0 UV-I 0 W/m 12,7 C 14,5 C 0,0 km/h (0 Bft) 0,00 %
03.06.2015 05:00 14,4 C 87 % 1019,3 hPa 0,0 l/m 0,0 km/h (0 Bft) N 0,00 h 0,000 mm 0,0 UV-I 0 W/m 12,3 C 14,4 C 0,0 km/h (0 Bft) 0,00 %
03.06.2015 06:00 14,3 C 88 % 1019,7 hPa 0,0 l/m 0,0 km/h (0 Bft) N 0,00 h 0,000 mm 0,0 UV-I 0 W/m 12,3 C 14,3 C 0,0 km/h (0 Bft) 0,00 %
03.06.2015 07:00 21,4 C 59 % 1019,0 hPa 0,0 l/m 0,0 km/h (0 Bft) N 1,00 h 0,000 mm 0,0 UV-I 0 W/m 13,0 C 21,4 C 0,0 km/h (0 Bft) 0,00 %
03.06.2015 08:00 23,2 C 54 % 1019,0 hPa 0,0 l/m 0,0 km/h (0 Bft) N 1,00 h 0,000 mm 0,0 UV-I 0 W/m 13,4 C 23,2 C 0,0 km/h (0 Bft) 0,00 %
03.06.2015 09:00 24,5 C 50 % 1019,6 hPa 0,0 l/m 0,6 km/h (0 Bft) N 1,00 h 0,000 mm 0,0 UV-I 0 W/m 13,4 C 24,5 C 4,0 km/h (1 Bft) 0,00 %
03.06.2015 10:00 26,4 C 47 % 1019,3 hPa 0,0 l/m 0,0 km/h (0 Bft) N 1,00 h 0,000 mm 0,0 UV-I 0 W/m 14,2 C 26,4 C 0,0 km/h (0 Bft) 0,00 %
03.06.2015 11:00 27,3 C 45 % 1019,2 hPa 0,0 l/m 0,0 km/h (0 Bft) N 1,00 h 0,000 mm 0,0 UV-I 0 W/m 14,3 C 27,3 C 4,0 km/h (1 Bft) 0,00 %
03.06.2015 12:00 27,6 C 42 % 1019,1 hPa 0,0 l/m 0,0 km/h (0 Bft) N 1,00 h 0,000 mm 0,0 UV-I 0 W/m 13,5 C 27,6 C 0,0 km/h (0 Bft) 0,00 %
03.06.2015 13:00 29,2 C 39 % 1018,6 hPa 0,0 l/m 0,0 km/h (0 Bft) N 1,00 h 0,000 mm 0,0 UV-I 0 W/m 13,8 C 29,2 C 0,0 km/h (0 Bft) 0,00 %
03.06.2015 14:00 29,3 C 30 % 1018,1 hPa 0,0 l/m 0,0 km/h (0 Bft) W 1,00 h 0,000 mm 0,0 UV-I 0 W/m 9,9 C 29,3 C 0,0 km/h (0 Bft) 0,00 %
03.06.2015 15:00 29,8 C 29 % 1017,8 hPa 0,0 l/m 4,0 km/h (1 Bft) N 1,00 h 0,000 mm 0,0 UV-I 0 W/m 9,8 C 29,8 C 7,9 km/h (2 Bft) 0,00 %
03.06.2015 16:00 30,5 C 29 % 1017,4 hPa 0,0 l/m 0,6 km/h (0 Bft) N 1,00 h 0,000 mm 0,0 UV-I 0 W/m 10,4 C 30,5 C 4,0 km/h (1 Bft) 0,00 %
03.06.2015 17:00 30,8 C 31 % 1016,9 hPa 0,0 l/m 0,6 km/h (0 Bft) N 1,00 h 0,000 mm 0,0 UV-I 0 W/m 11,7 C 30,8 C 4,0 km/h (1 Bft) 0,00 %
03.06.2015 18:00 30,0 C 31 % 1016,3 hPa 0,0 l/m 0,3 km/h (0 Bft) N 1,00 h 0,000 mm 0,0 UV-I 0 W/m 11,0 C 30,0 C 4,0 km/h (1 Bft) 0,00 %
03.06.2015 19:00 29,0 C 35 % 1016,8 hPa 0,0 l/m 0,0 km/h (0 Bft) N 1,00 h 0,000 mm 0,0 UV-I 0 W/m 12,0 C 29,0 C 0,0 km/h (0 Bft) 0,00 %
03.06.2015 20:00 28,7 C 37 % 1017,2 hPa 0,0 l/m 0,0 km/h (0 Bft) N 1,00 h 0,000 mm 0,0 UV-I 0 W/m 12,5 C 28,7 C 0,0 km/h (0 Bft) 0,00 %
03.06.2015 21:00 24,0 C 52 % 1018,3 hPa 0,0 l/m 0,0 km/h (0 Bft) N 0,00 h 0,000 mm 0,0 UV-I 0 W/m 13,5 C 24,0 C 0,0 km/h (0 Bft) 0,00 %
03.06.2015 22:00 21,0 C 61 % 1019,8 hPa 0,0 l/m 0,0 km/h (0 Bft) N 0,00 h 0,000 mm 0,0 UV-I 0 W/m 13,2 C 21,0 C 0,0 km/h (0 Bft) 0,00 %
03.06.2015 23:00 20,3 C 68 % 1020,2 hPa 0,0 l/m 0,0 km/h (0 Bft) N 0,00 h 0,000 mm 0,0 UV-I 0 W/m 14,2 C 20,3 C 0,0 km/h (0 Bft) 0,00 %
04.06.2015 00:00 19,7 C 70 % 1017,8 hPa 0,0 l/m 0,0 km/h (0 Bft) N 0,00 h 0,000 mm 0,0 UV-I 0 W/m 14,1 C 19,7 C 0,0 km/h (0 Bft) 0,00 %
04.06.2015 01:00 18,7 C 72 % 1018,2 hPa 0,0 l/m 0,0 km/h (0 Bft) N 0,00 h 0,000 mm 0,0 UV-I 0 W/m 13,5 C 18,7 C 0,0 km/h (0 Bft) 0,00 %
04.06.2015 02:00 18,3 C 74 % 1018,6 hPa 0,0 l/m 0,0 km/h (0 Bft) N 0,00 h 0,000 mm 0,0 UV-I 0 W/m 13,6 C 18,3 C 0,0 km/h (0 Bft) 0,00 %
04.06.2015 03:00 16,8 C 81 % 1019,3 hPa 0,0 l/m 0,0 km/h (0 Bft) N 0,00 h 0,000 mm 0,0 UV-I 0 W/m 13,5 C 16,8 C 0,0 km/h (0 Bft) 0,00 %
04.06.2015 04:00 16,3 C 81 % 1019,6 hPa 0,0 l/m 0,0 km/h (0 Bft) N 0,00 h 0,000 mm 0,0 UV-I 0 W/m 13,0 C 16,3 C 0,0 km/h (0 Bft) 0,00 %
04.06.2015 05:00 15,3 C 83 % 1020,1 hPa 0,0 l/m 0,0 km/h (0 Bft) N 0,00 h 0,000 mm 0,0 UV-I 0 W/m 12,4 C 15,3 C 0,0 km/h (0 Bft) 0,00 %
04.06.2015 06:00 16,4 C 81 % 1021,1 hPa 0,0 l/m 0,0 km/h (0 Bft) N 1,00 h 0,000 mm 0,0 UV-I 0 W/m 13,1 C 16,4 C 0,0 km/h (0 Bft) 0,00 %
04.06.2015 07:00 19,4 C 64 % 1021,3 hPa 0,0 l/m 0,0 km/h (0 Bft) O 1,00 h 0,000 mm 0,0 UV-I 0 W/m 12,4 C 19,4 C 0,0 km/h (0 Bft) 0,00 %
04.06.2015 08:00 19,8 C 60 % 1021,2 hPa 0,0 l/m 2,1 km/h (1 Bft) N 1,00 h 0,000 mm 0,0 UV-I 0 W/m 11,8 C 19,8 C 4,0 km/h (1 Bft) 0,00 %
04.06.2015 09:00 20,4 C 58 % 1021,1 hPa 0,0 l/m 0,0 km/h (0 Bft) S-SO 1,00 h 0,000 mm 0,0 UV-I 0 W/m 11,9 C 20,4 C 0,0 km/h (0 Bft) 0,00 %
04.06.2015 10:00 21,8 C 52 % 1020,9 hPa 0,0 l/m 2,9 km/h (1 Bft) O 1,00 h 0,000 mm 0,0 UV-I 0 W/m 11,5 C 21,8 C 7,9 km/h (2 Bft) 0,00 %
04.06.2015 11:00 23,4 C 50 % 1020,7 hPa 0,0 l/m 1,4 km/h (1 Bft) O 1,00 h 0,000 mm 0,0 UV-I 0 W/m 12,4 C 23,4 C 4,0 km/h (1 Bft) 0,00 %
04.06.2015 12:00 24,9 C 46 % 1019,8 hPa 0,0 l/m 6,9 km/h (2 Bft) O-NO 1,00 h 0,000 mm 0,0 UV-I 0 W/m 12,5 C 24,8 C 7,9 km/h (2 Bft) 0,00 %
04.06.2015 13:00 25,5 C 40 % 1019,3 hPa 0,0 l/m 1,4 km/h (1 Bft) N 1,00 h 0,000 mm 0,0 UV-I 0 W/m 10,9 C 25,5 C 4,0 km/h (1 Bft) 0,00 %
04.06.2015 14:00 26,0 C 39 % 1018,5 hPa 0,0 l/m 0,3 km/h (0 Bft) N 1,00 h 0,000 mm 0,0 UV-I 0 W/m 11,0 C 26,0 C 4,0 km/h (1 Bft) 0,00 %
04.06.2015 15:00 26,8 C 38 % 1018,1 hPa 0,0 l/m 0,0 km/h (0 Bft) O 1,00 h 0,000 mm 0,0 UV-I 0 W/m 11,3 C 26,8 C 0,0 km/h (0 Bft) 0,00 %
04.06.2015 16:00 27,9 C 36 % 1017,2 hPa 0,0 l/m 5,5 km/h (1 Bft) N 1,00 h 0,000 mm 0,0 UV-I 0 W/m 11,4 C 27,9 C 7,9 km/h (2 Bft) 0,00 %
04.06.2015 17:00 28,5 C 35 % 1016,4 hPa 0,0 l/m 0,3 km/h (0 Bft) N 1,00 h 0,000 mm 0,0 UV-I 0 W/m 11,5 C 28,5 C 4,0 km/h (1 Bft) 0,00 %
04.06.2015 18:00 28,1 C 37 % 1015,8 hPa 0,0 l/m 0,6 km/h (0 Bft) N 1,00 h 0,000 mm 0,0 UV-I 0 W/m 12,0 C 28,1 C 4,0 km/h (1 Bft) 0,00 %
04.06.2015 19:00 28,8 C 39 % 1015,3 hPa 0,0 l/m 0,0 km/h (0 Bft) N 1,00 h 0,000 mm 0,0 UV-I 0 W/m 13,4 C 28,8 C 0,0 km/h (0 Bft) 0,00 %
04.06.2015 20:00 26,6 C 41 % 1016,0 hPa 0,0 l/m 0,0 km/h (0 Bft) NO 1,00 h 0,000 mm 0,0 UV-I 0 W/m 12,2 C 26,6 C 0,0 km/h (0 Bft) 0,00 %
04.06.2015 21:00 21,7 C 62 % 1017,4 hPa 0,0 l/m 3,2 km/h (1 Bft) N 0,00 h 0,000 mm 0,0 UV-I 0 W/m 14,1 C 21,7 C 7,9 km/h (2 Bft) 0,00 %
04.06.2015 22:00 19,9 C 69 % 1018,1 hPa 0,0 l/m 0,0 km/h (0 Bft) N 0,00 h 0,000 mm 0,0 UV-I 0 W/m 14,0 C 19,9 C 0,0 km/h (0 Bft) 0,00 %
04.06.2015 23:00 19,1 C 70 % 1018,9 hPa 0,0 l/m 0,0 km/h (0 Bft) O 0,00 h 0,000 mm 0,0 UV-I 0 W/m 13,5 C 19,1 C 0,0 km/h (0 Bft) 0,00 %
05.06.2015 00:00 17,7 C 75 % 1021,6 hPa 0,0 l/m 4,0 km/h (1 Bft) O 0,00 h 0,000 mm 0,0 UV-I 0 W/m 13,2 C 17,7 C 7,9 km/h (2 Bft) 0,00 %
05.06.2015 01:00 18,1 C 67 % 1022,0 hPa 0,0 l/m 10,8 km/h (2 Bft) O 0,00 h 0,000 mm 0,0 UV-I 0 W/m 11,9 C 16,3 C 15,8 km/h (3 Bft) 0,00 %
05.06.2015 02:00 16,9 C 69 % 1022,2 hPa 0,0 l/m 8,2 km/h (2 Bft) O-SO 0,00 h 0,000 mm 0,0 UV-I 0 W/m 11,2 C 16,0 C 11,9 km/h (2 Bft) 0,00 %
05.06.2015 03:00 15,9 C 68 % 1022,3 hPa 0,0 l/m 11,6 km/h (2 Bft) O 0,00 h 0,000 mm 0,0 UV-I 0 W/m 10,0 C 13,5 C 15,8 km/h (3 Bft) 0,00 %
05.06.2015 04:00 15,0 C 69 % 1022,5 hPa 0,0 l/m 8,2 km/h (2 Bft) N 0,00 h 0,000 mm 0,0 UV-I 0 W/m 9,4 C 14,0 C 11,9 km/h (2 Bft) 0,00 %
05.06.2015 05:00 14,3 C 70 % 1022,6 hPa 0,0 l/m 0,3 km/h (0 Bft) O-SO 0,00 h 0,000 mm 0,0 UV-I 0 W/m 8,9 C 14,3 C 4,0 km/h (1 Bft) 0,00 %
05.06.2015 06:00 14,8 C 63 % 1022,5 hPa 0,0 l/m 4,7 km/h (1 Bft) O-SO 1,00 h 0,000 mm 0,0 UV-I 0 W/m 7,8 C 14,8 C 7,9 km/h (2 Bft) 0,00 %
05.06.2015 07:00 16,1 C 58 % 1022,3 hPa 0,0 l/m 9,0 km/h (2 Bft) O-SO 1,00 h 0,000 mm 0,0 UV-I 0 W/m 7,8 C 14,8 C 15,5 km/h (3 Bft) 0,00 %
05.06.2015 08:00 17,4 C 58 % 1022,1 hPa 0,0 l/m 9,0 km/h (2 Bft) O-SO 1,00 h 0,000 mm 0,0 UV-I 0 W/m 9,1 C 16,2 C 11,9 km/h (2 Bft) 0,00 %
05.06.2015 09:00 18,6 C 53 % 1021,5 hPa 0,0 l/m 19,5 km/h (3 Bft) O 1,00 h 0,000 mm 0,0 UV-I 0 W/m 8,8 C 14,5 C 24,1 km/h (4 Bft) 0,00 %
05.06.2015 10:00 19,6 C 49 % 1021,3 hPa 0,0 l/m 14,3 km/h (3 Bft) O 1,00 h 0,000 mm 0,0 UV-I 0 W/m 8,6 C 16,9 C 19,8 km/h (3 Bft) 0,00 %
05.06.2015 11:00 22,1 C 46 % 1021,0 hPa 0,0 l/m 11,6 km/h (2 Bft) O 1,00 h 0,000 mm 0,0 UV-I 0 W/m 9,9 C 20,5 C 15,8 km/h (3 Bft) 0,00 %
05.06.2015 12:00 23,2 C 45 % 1020,5 hPa 0,0 l/m 15,8 km/h (3 Bft) O-SO 1,00 h 0,000 mm 0,0 UV-I 0 W/m 10,6 C 21,0 C 19,8 km/h (3 Bft) 0,00 %
05.06.2015 13:00 24,3 C 43 % 1019,9 hPa 0,0 l/m 13,0 km/h (3 Bft) N-NO 1,00 h 0,000 mm 0,0 UV-I 0 W/m 10,9 C 22,8 C 24,1 km/h (4 Bft) 0,00 %
05.06.2015 14:00 25,1 C 41 % 1019,5 hPa 0,0 l/m 4,7 km/h (1 Bft) O 1,00 h 0,000 mm 0,0 UV-I 0 W/m 10,9 C 25,1 C 7,9 km/h (2 Bft) 0,00 %
05.06.2015 15:00 25,4 C 41 % 1019,1 hPa 0,0 l/m 10,5 km/h (2 Bft) NO 1,00 h 0,000 mm 0,0 UV-I 0 W/m 11,2 C 24,5 C 11,9 km/h (2 Bft) 0,00 %
05.06.2015 16:00 26,3 C 38 % 1018,3 hPa 0,0 l/m 5,5 km/h (1 Bft) O-SO 1,00 h 0,000 mm 0,0 UV-I 0 W/m 10,8 C 26,3 C 7,9 km/h (2 Bft) 0,00 %
05.06.2015 17:00 26,1 C 39 % 1018,0 hPa 0,0 l/m 2,9 km/h (1 Bft) O-SO 1,00 h 0,000 mm 0,0 UV-I 0 W/m 11,0 C 26,1 C 7,9 km/h (2 Bft) 0,00 %
05.06.2015 18:00 25,2 C 40 % 1017,0 hPa 0,0 l/m 4,3 km/h (1 Bft) NO 1,00 h 0,000 mm 0,0 UV-I 0 W/m 10,6 C 25,2 C 7,9 km/h (2 Bft) 0,00 %
05.06.2015 19:00 24,2 C 42 % 1016,8 hPa 0,0 l/m 2,1 km/h (1 Bft) N 1,00 h 0,000 mm 0,0 UV-I 0 W/m 10,5 C 24,2 C 4,0 km/h (1 Bft) 0,00 %
05.06.2015 20:00 22,7 C 46 % 1017,3 hPa 0,0 l/m 0,0 km/h (0 Bft) N 1,00 h 0,000 mm 0,0 UV-I 0 W/m 10,5 C 22,7 C 0,0 km/h (0 Bft) 0,00 %
05.06.2015 21:00 20,2 C 50 % 1017,7 hPa 0,0 l/m 0,6 km/h (0 Bft) SO 0,00 h 0,000 mm 0,0 UV-I 0 W/m 9,4 C 20,2 C 4,0 km/h (1 Bft) 0,00 %
05.06.2015 22:00 18,9 C 54 % 1018,3 hPa 0,0 l/m 4,3 km/h (1 Bft) O-SO 0,00 h 0,000 mm 0,0 UV-I 0 W/m 9,4 C 18,9 C 7,9 km/h (2 Bft) 0,00 %
05.06.2015 23:00 17,8 C 58 % 1018,1 hPa 0,0 l/m 6,4 km/h (2 Bft) O 0,00 h 0,000 mm 0,0 UV-I 0 W/m 9,4 C 17,8 C 7,9 km/h (2 Bft) 0,00 %
06.06.2015 00:00 17,2 C 60 % 1015,3 hPa 0,0 l/m 4,0 km/h (1 Bft) O 0,00 h 0,000 mm 0,0 UV-I 0 W/m 9,4 C 17,2 C 7,9 km/h (2 Bft) 0,00 %
06.06.2015 01:00 16,5 C 65 % 1015,1 hPa 0,0 l/m 4,7 km/h (1 Bft) N 0,00 h 0,000 mm 0,0 UV-I 0 W/m 9,9 C 16,5 C 7,9 km/h (2 Bft) 0,00 %
06.06.2015 02:00 15,2 C 73 % 1015,1 hPa 0,0 l/m 0,3 km/h (0 Bft) N 0,00 h 0,000 mm 0,0 UV-I 0 W/m 10,4 C 15,2 C 4,0 km/h (1 Bft) 0,00 %
06.06.2015 03:00 14,4 C 78 % 1015,2 hPa 0,0 l/m 0,0 km/h (0 Bft) N 0,00 h 0,000 mm 0,0 UV-I 0 W/m 10,6 C 14,4 C 0,0 km/h (0 Bft) 0,00 %
06.06.2015 04:00 13,7 C 82 % 1015,7 hPa 0,0 l/m 0,0 km/h (0 Bft) N 0,00 h 0,000 mm 0,0 UV-I 0 W/m 10,7 C 13,7 C 0,0 km/h (0 Bft) 0,00 %
06.06.2015 05:00 12,7 C 88 % 1015,8 hPa 0,0 l/m 0,0 km/h (0 Bft) N 0,00 h 0,000 mm 0,0 UV-I 0 W/m 10,8 C 12,7 C 0,0 km/h (0 Bft) 0,00 %
06.06.2015 06:00 15,0 C 79 % 1015,9 hPa 0,0 l/m 0,0 km/h (0 Bft) N 1,00 h 0,000 mm 0,0 UV-I 0 W/m 11,4 C 15,0 C 0,0 km/h (0 Bft) 0,00 %
06.06.2015 07:00 19,3 C 63 % 1015,9 hPa 0,0 l/m 0,0 km/h (0 Bft) N 1,00 h 0,000 mm 0,0 UV-I 0 W/m 12,1 C 19,3 C 0,0 km/h (0 Bft) 0,00 %
06.06.2015 08:00 20,9 C 57 % 1016,3 hPa 0,0 l/m 0,0 km/h (0 Bft) N 1,00 h 0,000 mm 0,0 UV-I 0 W/m 12,1 C 20,9 C 0,0 km/h (0 Bft) 0,00 %
06.06.2015 09:00 22,9 C 56 % 1015,3 hPa 0,0 l/m 0,0 km/h (0 Bft) N 1,00 h 0,000 mm 0,0 UV-I 0 W/m 13,6 C 22,9 C 0,0 km/h (0 Bft) 0,00 %
06.06.2015 10:00 25,1 C 47 % 1015,0 hPa 0,0 l/m 0,6 km/h (0 Bft) N 1,00 h 0,000 mm 0,0 UV-I 0 W/m 13,0 C 25,1 C 4,0 km/h (1 Bft) 0,00 %
06.06.2015 11:00 25,8 C 45 % 1014,6 hPa 0,0 l/m 0,0 km/h (0 Bft) N 1,00 h 0,000 mm 0,0 UV-I 0 W/m 13,0 C 25,8 C 0,0 km/h (0 Bft) 0,00 %
06.06.2015 12:00 27,8 C 42 % 1014,6 hPa 0,0 l/m 0,0 km/h (0 Bft) N 1,00 h 0,000 mm 0,0 UV-I 0 W/m 13,7 C 27,8 C 0,0 km/h (0 Bft) 0,00 %
06.06.2015 13:00 27,4 C 43 % 1014,4 hPa 0,0 l/m 0,0 km/h (0 Bft) N 1,00 h 0,000 mm 0,0 UV-I 0 W/m 13,7 C 27,4 C 0,0 km/h (0 Bft) 0,00 %
06.06.2015 14:00 29,2 C 37 % 1014,1 hPa 0,0 l/m 0,0 km/h (0 Bft) N 1,00 h 0,000 mm 0,0 UV-I 0 W/m 13,0 C 29,2 C 0,0 km/h (0 Bft) 0,00 %
06.06.2015 15:00 31,1 C 31 % 1013,4 hPa 0,0 l/m 0,0 km/h (0 Bft) O-SO 1,00 h 0,000 mm 0,0 UV-I 0 W/m 11,9 C 31,1 C 0,0 km/h (0 Bft) 0,00 %
06.06.2015 16:00 30,9 C 27 % 1013,4 hPa 0,0 l/m 1,4 km/h (1 Bft) O-SO 1,00 h 0,000 mm 0,0 UV-I 0 W/m 9,7 C 30,9 C 4,0 km/h (1 Bft) 0,00 %
06.06.2015 17:00 31,2 C 27 % 1012,4 hPa 0,0 l/m 1,4 km/h (1 Bft) N 1,00 h 0,000 mm 0,0 UV-I 0 W/m 10,0 C 31,2 C 4,0 km/h (1 Bft) 0,00 %
06.06.2015 18:00 32,1 C 23 % 1011,9 hPa 0,0 l/m 0,0 km/h (0 Bft) N 1,00 h 0,000 mm 0,0 UV-I 0 W/m 8,3 C 32,1 C 0,0 km/h (0 Bft) 0,00 %
06.06.2015 19:00 30,7 C 25 % 1012,1 hPa 0,0 l/m 0,0 km/h (0 Bft) N 1,00 h 0,000 mm 0,0 UV-I 0 W/m 8,4 C 30,7 C 0,0 km/h (0 Bft) 0,00 %
06.06.2015 20:00 29,9 C 40 % 1012,2 hPa 0,0 l/m 0,0 km/h (0 Bft) N 0,00 h 0,000 mm 0,0 UV-I 0 W/m 14,8 C 29,9 C 0,0 km/h (0 Bft) 0,00 %
06.06.2015 21:00 23,5 C 48 % 1013,4 hPa 0,0 l/m 0,0 km/h (0 Bft) N 0,00 h 0,000 mm 0,0 UV-I 0 W/m 11,8 C 23,5 C 0,0 km/h (0 Bft) 0,00 %
06.06.2015 22:00 21,5 C 57 % 1014,8 hPa 0,0 l/m 0,0 km/h (0 Bft) N 0,00 h 0,000 mm 0,0 UV-I 0 W/m 12,6 C 21,5 C 0,0 km/h (0 Bft) 0,00 %
06.06.2015 23:00 20,1 C 64 % 1016,1 hPa 0,0 l/m 0,0 km/h (0 Bft) N 0,00 h 0,000 mm 0,0 UV-I 0 W/m 13,1 C 20,1 C 0,0 km/h (0 Bft) 0,00 %
07.06.2015 00:00 19,5 C 70 % 1020,6 hPa 0,0 l/m 0,0 km/h (0 Bft) N 0,00 h 0,000 mm 0,0 UV-I 0 W/m 13,9 C 19,5 C 0,0 km/h (0 Bft) 0,00 %
07.06.2015 01:00 18,3 C 74 % 1021,2 hPa 0,0 l/m 0,0 km/h (0 Bft) N 0,00 h 0,000 mm 0,0 UV-I 0 W/m 13,6 C 18,3 C 0,0 km/h (0 Bft) 0,00 %
07.06.2015 02:00 20,0 C 64 % 1021,7 hPa 0,0 l/m 0,0 km/h (0 Bft) N 0,00 h 0,000 mm 0,0 UV-I 0 W/m 13,0 C 20,0 C 0,0 km/h (0 Bft) 0,00 %
07.06.2015 03:00 19,1 C 65 % 1021,4 hPa 0,0 l/m 0,0 km/h (0 Bft) N 0,00 h 0,000 mm 0,0 UV-I 0 W/m 12,4 C 19,1 C 0,0 km/h (0 Bft) 0,00 %
07.06.2015 04:00 17,8 C 72 % 1021,3 hPa 0,0 l/m 0,0 km/h (0 Bft) N 0,00 h 0,000 mm 0,0 UV-I 0 W/m 12,7 C 17,8 C 0,0 km/h (0 Bft) 0,00 %
07.06.2015 05:00 16,9 C 76 % 1022,2 hPa 0,0 l/m 0,0 km/h (0 Bft) N 0,00 h 0,000 mm 0,0 UV-I 0 W/m 12,6 C 16,9 C 0,0 km/h (0 Bft) 0,00 %
07.06.2015 06:00 16,9 C 76 % 1021,5 hPa 0,0 l/m 0,0 km/h (0 Bft) N 1,00 h 0,000 mm 0,0 UV-I 0 W/m 12,6 C 16,9 C 0,0 km/h (0 Bft) 0,00 %
07.06.2015 07:00 20,6 C 62 % 1021,7 hPa 0,0 l/m 0,0 km/h (0 Bft) SO 1,00 h 0,000 mm 0,0 UV-I 0 W/m 13,1 C 20,6 C 0,0 km/h (0 Bft) 0,00 %
07.06.2015 08:00 21,7 C 62 % 1022,0 hPa 0,0 l/m 7,0 km/h (2 Bft) N 1,00 h 0,000 mm 0,0 UV-I 0 W/m 14,1 C 21,5 C 7,9 km/h (2 Bft) 0,00 %
07.06.2015 09:00 23,5 C 55 % 1021,3 hPa 0,0 l/m 0,0 km/h (0 Bft) W-NW 1,00 h 0,000 mm 0,0 UV-I 0 W/m 13,9 C 23,5 C 0,0 km/h (0 Bft) 0,00 %
07.06.2015 10:00 25,0 C 49 % 1020,3 hPa 0,0 l/m 4,0 km/h (1 Bft) W-NW 1,00 h 0,000 mm 0,0 UV-I 0 W/m 13,5 C 25,0 C 7,9 km/h (2 Bft) 0,00 %
07.06.2015 11:00 28,3 C 43 % 1019,9 hPa 0,0 l/m 1,8 km/h (1 Bft) N 1,00 h 0,000 mm 0,0 UV-I 0 W/m 14,5 C 28,3 C 4,0 km/h (1 Bft) 0,00 %
07.06.2015 12:00 27,7 C 44 % 1019,6 hPa 0,0 l/m 0,0 km/h (0 Bft) O 1,00 h 0,000 mm 0,0 UV-I 0 W/m 14,3 C 27,7 C 0,0 km/h (0 Bft) 0,00 %
07.06.2015 13:00 28,3 C 42 % 1018,8 hPa 0,0 l/m 2,1 km/h (1 Bft) W-NW 1,00 h 0,000 mm 0,0 UV-I 0 W/m 14,1 C 28,3 C 4,0 km/h (1 Bft) 0,00 %
07.06.2015 14:00 27,8 C 43 % 1018,2 hPa 0,0 l/m 1,8 km/h (1 Bft) O-SO 1,00 h 0,000 mm 0,0 UV-I 0 W/m 14,1 C 27,8 C 4,0 km/h (1 Bft) 0,00 %
07.06.2015 15:00 29,6 C 36 % 1017,3 hPa 0,0 l/m 5,8 km/h (2 Bft) N 1,00 h 0,000 mm 0,0 UV-I 0 W/m 12,9 C 29,6 C 7,9 km/h (2 Bft) 0,00 %
07.06.2015 16:00 30,5 C 38 % 1016,4 hPa 0,0 l/m 0,0 km/h (0 Bft) NO 1,00 h 0,000 mm 0,0 UV-I 0 W/m 14,5 C 30,5 C 0,0 km/h (0 Bft) 0,00 %
07.06.2015 17:00 30,8 C 32 % 1016,4 hPa 0,0 l/m 5,8 km/h (2 Bft) NO 1,00 h 0,000 mm 0,0 UV-I 0 W/m 12,2 C 30,8 C 7,9 km/h (2 Bft) 0,00 %
07.06.2015 18:00 26,3 C 49 % 1017,0 hPa 0,0 l/m 2,9 km/h (1 Bft) S-SW 1,00 h 0,000 mm 0,0 UV-I 0 W/m 14,7 C 26,3 C 4,0 km/h (1 Bft) 0,00 %
07.06.2015 19:00 28,6 C 45 % 1016,0 hPa 0,0 l/m 4,0 km/h (1 Bft) N 1,00 h 0,000 mm 0,0 UV-I 0 W/m 15,5 C 28,6 C 11,9 km/h (2 Bft) 0,00 %
07.06.2015 20:00 24,0 C 56 % 1017,0 hPa 0,0 l/m 0,0 km/h (0 Bft) N 0,00 h 0,000 mm 0,0 UV-I 0 W/m 14,7 C 24,0 C 0,0 km/h (0 Bft) 0,00 %
07.06.2015 21:00 23,2 C 64 % 1017,5 hPa 0,0 l/m 0,0 km/h (0 Bft) N 0,00 h 0,000 mm 0,0 UV-I 0 W/m 16,0 C 23,2 C 0,0 km/h (0 Bft) 0,00 %
07.06.2015 22:00 21,9 C 68 % 1017,3 hPa 0,0 l/m 0,0 km/h (0 Bft) N 0,00 h 0,000 mm 0,0 UV-I 0 W/m 15,7 C 21,9 C 0,0 km/h (0 Bft) 0,00 %
07.06.2015 23:00 20,7 C 72 % 1017,8 hPa 0,0 l/m 0,0 km/h (0 Bft) N 0,00 h 0,000 mm 0,0 UV-I 0 W/m 15,5 C 20,7 C 0,0 km/h (0 Bft) 0,00 %
Min-Datum _ 01.06.15 06.06.15 01.06.15 - 01.06.15 - - - - - 05.06.15 01.06.15 01.06.15 01.06.15
_ Min-Zeit 05:00 18:00 19:00 - 00:00 - - - - - 06:00 05:00 00:00 00:00
Minimum _ 12,0 C 23 % 1011,9 hPa - 0,0 km/h (0 Bft) - - - - - 7,8 C 12,0 C 0,0 km/h (0 Bft) 0,00 %
Max-Datum _ 06.06.15 01.06.15 05.06.15 01.06.15 05.06.15 - 01.06.15 01.06.15 03.06.15 07.06.15 07.06.15 06.06.15 05.06.15 01.06.15
_ Max-Zeit 18:00 04:00 05:00 03:00 09:00 - 07:00 00:00 13:00 16:00 21:00 18:00 09:00 00:00
Maximum _ 32,1 C 97 % 1022,6 hPa 0,3 l/m 19,5 km/h
O (3 Bft)
- 1,00 h 0,000 mm 7,0 UV-I 971 W/m 16,0 C 32,1 C 24,1 km/h
O (4 Bft)
0,00 %
Durchschnitt _ 21,8 C 58 % 1017,6 hPa #0,3 l/m 1,7 km/h (1 Bft) O #97:00 h #0,000 mm 0,0 UV-I 0 W/m 12,3 C 21,7 C 3,1 km/h (1 Bft) 0,00 %